EKVJ/STA METAR and TAF weather

Enter ICAO airport designator
Station Type Date Time Source
EKVJ METAR 2021/05/12 13:50 UTC NOAA

EKVJ 121350Z 30010KT 9999 BKN005 12/10 Q1008


Station Type Date Time Source
EKVJ Decoded METAR 2021/05/12 13:50 UTC NOAA

Stauning Lufthavn, Denmark (EKVJ) 56-00N 008-21E 5M
May 12, 2021 - 09:50 AM EDT / 2021.05.12 1350 UTC
Wind: from the WNW (300 degrees) at 12 MPH (10 KT):0
Visibility: greater than 7 mile(s):0
Sky conditions: mostly cloudy
Temperature: 53 F (12 C)
Dew Point: 50 F (10 C)
Relative Humidity: 87%
Pressure (altimeter): 29.77 in. Hg (1008 hPa)
ob: EKVJ 121350Z 30010KT 9999 BKN005 12/10 Q1008
cycle: 14

Station Type Date Time Source
EKVJ TAF UTC NOAA

Error!

Example: see airport list